createdAt,value
2018-04-09T00:00:36.291Z,22.09
2018-04-09T00:01:36.351Z,22.04
2018-04-09T00:02:36.383Z,22.02
2018-04-09T00:03:36.538Z,22.02
2018-04-09T00:04:36.671Z,22.04
2018-04-09T00:05:36.528Z,22.07
2018-04-09T00:06:36.571Z,22.13
2018-04-09T00:07:36.621Z,22.09
2018-04-09T00:08:36.675Z,22.07
2018-04-09T00:09:36.709Z,22.02
2018-04-09T00:10:36.770Z,22.01
2018-04-09T00:11:36.798Z,21.98
2018-04-09T00:12:36.845Z,22.04
2018-04-09T00:14:37.062Z,21.90
2018-04-09T00:15:36.983Z,21.99
2018-04-09T00:16:37.266Z,22.07
2018-04-09T00:17:37.080Z,22.04
2018-04-09T00:18:37.118Z,22.04
2018-04-09T00:19:37.174Z,21.92
2018-04-09T00:20:37.238Z,21.92
2018-04-09T00:21:37.273Z,22.01
2018-04-09T00:23:37.384Z,21.92
2018-04-09T00:24:37.505Z,21.97
2018-04-09T00:25:37.468Z,21.97
2018-04-09T00:26:37.497Z,21.92
2018-04-09T00:27:37.541Z,21.95
2018-04-09T00:28:37.615Z,21.83
2018-04-09T00:29:37.643Z,21.85
2018-04-09T00:30:37.797Z,21.88
2018-04-09T00:31:37.758Z,21.83
2018-04-09T00:32:37.817Z,21.82
2018-04-09T00:33:37.828Z,21.85
2018-04-09T00:34:37.877Z,21.76
2018-04-09T00:35:38.009Z,21.79
2018-04-09T00:36:37.994Z,21.79
2018-04-09T00:37:38.055Z,21.79
2018-04-09T00:38:38.100Z,21.78
2018-04-09T00:39:38.177Z,21.85
2018-04-09T00:40:38.197Z,21.78
2018-04-09T00:41:38.517Z,21.76
2018-04-09T00:42:38.273Z,21.78
2018-04-09T00:43:38.296Z,21.72
2018-04-09T00:44:38.361Z,21.75
2018-04-09T00:45:38.406Z,21.69
2018-04-09T00:46:38.428Z,21.69
2018-04-09T00:47:38.489Z,21.67
2018-04-09T00:48:38.741Z,21.69
2018-04-09T00:50:38.622Z,21.56
2018-04-09T00:51:38.673Z,21.57
2018-04-09T00:52:38.838Z,21.57
2018-04-09T00:53:38.898Z,21.53
2018-04-09T00:54:38.809Z,21.61
2018-04-09T00:55:38.890Z,21.57
2018-04-09T00:56:38.923Z,21.56
2018-04-09T00:57:38.969Z,21.56
2018-04-09T00:58:39.018Z,21.57
2018-04-09T00:59:39.063Z,21.56
2018-04-09T01:00:39.124Z,21.51
2018-04-09T01:01:39.145Z,21.50
2018-04-09T01:02:39.203Z,21.51
2018-04-09T01:03:39.247Z,21.41
2018-04-09T01:04:39.385Z,21.44
2018-04-09T01:05:39.335Z,21.45
2018-04-09T01:06:39.406Z,21.42
2018-04-09T01:07:39.419Z,21.48
2018-04-09T01:08:39.461Z,21.42
2018-04-09T01:09:39.639Z,21.46
2018-04-09T01:10:39.573Z,21.42
2018-04-09T01:11:39.620Z,21.38
2018-04-09T01:12:39.657Z,21.30
2018-04-09T01:13:39.722Z,21.36
2018-04-09T01:14:39.748Z,21.36
2018-04-09T01:15:39.826Z,21.41
2018-04-09T01:16:39.843Z,21.41
2018-04-09T01:17:39.921Z,21.39
2018-04-09T01:18:39.927Z,21.41
2018-04-09T01:19:39.991Z,21.41
2018-04-09T01:20:40.153Z,21.44
2018-04-09T01:21:40.394Z,21.35
2018-04-09T01:22:40.143Z,21.29
2018-04-09T01:23:40.180Z,21.27
2018-04-09T01:24:40.215Z,21.41
2018-04-09T01:25:40.277Z,21.44
2018-04-09T01:26:40.328Z,21.41
2018-04-09T01:27:40.372Z,21.42
2018-04-09T01:28:40.438Z,21.35
2018-04-09T01:29:40.662Z,21.41
2018-04-09T01:30:40.504Z,21.44
2018-04-09T01:31:40.660Z,21.38
2018-04-09T01:32:40.585Z,21.26
2018-04-09T01:33:40.635Z,21.35
2018-04-09T01:34:40.673Z,21.38
2018-04-09T01:35:40.710Z,21.35
2018-04-09T01:36:40.902Z,21.34
2018-04-09T01:37:41.015Z,21.36
2018-04-09T01:38:40.880Z,21.27
2018-04-09T01:39:40.966Z,21.39
2018-04-09T01:40:40.993Z,21.39
2018-04-09T01:41:41.012Z,21.34
2018-04-09T01:42:41.065Z,21.35
2018-04-09T01:43:41.125Z,21.36
2018-04-09T01:44:41.150Z,21.34
2018-04-09T01:45:41.196Z,21.32
2018-04-09T01:47:41.419Z,21.35
2018-04-09T01:48:41.436Z,21.29
2018-04-09T01:49:41.409Z,21.27
2018-04-09T01:50:41.459Z,21.30
2018-04-09T01:51:41.483Z,21.30
2018-04-09T01:52:41.554Z,21.32
2018-04-09T01:53:41.563Z,21.30
2018-04-09T01:54:41.733Z,21.29
2018-04-09T01:55:41.705Z,21.35
2018-04-09T01:56:41.910Z,21.38
2018-04-09T01:57:41.777Z,21.35
2018-04-09T01:58:41.808Z,21.30
2018-04-09T01:59:41.961Z,21.29
2018-04-09T02:00:41.928Z,21.35
2018-04-09T02:01:41.975Z,21.44
2018-04-09T02:03:42.107Z,21.46
2018-04-09T02:04:42.141Z,21.51
2018-04-09T02:05:42.213Z,21.39
2018-04-09T02:06:42.284Z,21.48
2018-04-09T02:07:42.299Z,21.41
2018-04-09T02:08:42.346Z,21.44
2018-04-09T02:09:42.388Z,21.41
2018-04-09T02:10:42.422Z,21.39
2018-04-09T02:11:42.541Z,21.41
2018-04-09T02:12:42.722Z,21.44
2018-04-09T02:14:42.547Z,21.41
2018-04-09T02:15:42.671Z,21.39
2018-04-09T02:16:42.710Z,21.41
2018-04-09T02:17:42.810Z,21.39
2018-04-09T02:18:42.858Z,21.36
2018-04-09T02:19:42.827Z,21.36
2018-04-09T02:20:42.908Z,21.30
2018-04-09T02:21:42.929Z,21.32
2018-04-09T02:22:42.991Z,21.30
2018-04-09T02:23:43.060Z,21.41
2018-04-09T02:24:43.477Z,21.46
2018-04-09T02:25:43.134Z,21.38
2018-04-09T02:26:43.159Z,21.39
2018-04-09T02:27:43.166Z,21.39
2018-04-09T02:28:43.209Z,21.38
2018-04-09T02:29:43.345Z,21.36
2018-04-09T02:31:43.371Z,21.36
2018-04-09T02:32:43.395Z,21.36
2018-04-09T02:33:43.478Z,21.41
2018-04-09T02:34:43.483Z,21.50
2018-04-09T02:35:43.553Z,21.45
2018-04-09T02:36:43.568Z,21.46
2018-04-09T02:37:43.629Z,21.54
2018-04-09T02:38:43.698Z,21.54
2018-04-09T02:39:43.731Z,21.51
2018-04-09T02:40:44.088Z,21.61
2018-04-09T02:41:43.830Z,21.53
2018-04-09T02:42:43.852Z,21.59
2018-04-09T02:43:43.937Z,21.50
2018-04-09T02:44:43.952Z,21.51
2018-04-09T02:45:44.013Z,21.46
2018-04-09T02:46:44.366Z,21.46
2018-04-09T02:47:44.139Z,21.44
2018-04-09T02:48:44.145Z,21.50
2018-04-09T02:49:44.222Z,21.35
2018-04-09T02:50:44.244Z,21.34
2018-04-09T02:51:44.286Z,21.45
2018-04-09T02:52:44.339Z,21.39
2018-04-09T02:53:44.376Z,21.39
2018-04-09T02:54:44.427Z,21.30
2018-04-09T02:55:44.499Z,21.38
2018-04-09T02:56:44.616Z,21.36
2018-04-09T02:57:44.682Z,21.46
2018-04-09T02:58:44.626Z,21.44
2018-04-09T02:59:44.664Z,21.51
2018-04-09T03:00:44.718Z,21.51
2018-04-09T03:01:44.774Z,21.50
2018-04-09T03:02:44.838Z,21.53
2018-04-09T03:03:44.833Z,21.59
2018-04-09T03:04:44.907Z,21.56
2018-04-09T03:05:44.949Z,21.61
2018-04-09T03:06:45.015Z,21.61
2018-04-09T03:07:45.061Z,21.59
2018-04-09T03:08:45.182Z,21.72
2018-04-09T03:09:45.237Z,21.64
2018-04-09T03:10:45.199Z,21.66
2018-04-09T03:11:45.236Z,21.71
2018-04-09T03:12:45.282Z,21.64
2018-04-09T03:13:45.307Z,21.61
2018-04-09T03:14:45.380Z,21.64
2018-04-09T03:15:45.421Z,21.67
2018-04-09T03:16:45.480Z,21.74
2018-04-09T03:17:45.523Z,21.71
2018-04-09T03:18:45.544Z,21.64
2018-04-09T03:19:45.594Z,21.56
2018-04-09T03:20:45.759Z,21.64
2018-04-09T03:21:46.021Z,21.59
2018-04-09T03:22:45.749Z,21.54
2018-04-09T03:23:45.785Z,21.57
2018-04-09T03:24:45.847Z,21.60
2018-04-09T03:25:45.894Z,21.56
2018-04-09T03:26:45.920Z,21.53
2018-04-09T03:27:45.988Z,21.57
2018-04-09T03:28:46.034Z,21.51
2018-04-09T03:29:46.061Z,21.51
2018-04-09T03:30:46.140Z,21.54
2018-04-09T03:31:46.191Z,21.54
2018-04-09T03:32:46.312Z,21.51
2018-04-09T03:33:46.362Z,21.51
2018-04-09T03:34:46.327Z,21.46
2018-04-09T03:35:46.371Z,21.45
2018-04-09T03:36:46.414Z,21.54
2018-04-09T03:37:46.457Z,21.41
2018-04-09T03:38:46.481Z,21.45
2018-04-09T03:39:46.523Z,21.48
2018-04-09T03:40:46.567Z,21.44
2018-04-09T03:41:46.629Z,21.45
2018-04-09T03:42:46.675Z,21.46
2018-04-09T03:43:46.709Z,21.45
2018-04-09T03:44:46.896Z,21.45
2018-04-09T03:45:46.911Z,21.46
2018-04-09T03:46:46.870Z,21.42
2018-04-09T03:47:46.917Z,21.41
2018-04-09T03:48:46.959Z,21.41
2018-04-09T03:49:47.013Z,21.46
2018-04-09T03:50:47.051Z,21.46
2018-04-09T03:51:47.215Z,21.39
2018-04-09T03:52:47.169Z,21.45
2018-04-09T03:53:47.193Z,21.48
2018-04-09T03:54:47.439Z,21.34
2018-04-09T03:55:47.282Z,21.41
2018-04-09T03:56:47.439Z,21.46
2018-04-09T03:57:47.382Z,21.46
2018-04-09T03:58:47.416Z,21.41
2018-04-09T03:59:47.482Z,21.41
2018-04-09T04:00:47.513Z,21.34
2018-04-09T04:02:47.632Z,21.35
2018-04-09T04:03:47.760Z,21.38
2018-04-09T04:04:47.707Z,21.36
2018-04-09T04:05:47.771Z,21.35
2018-04-09T04:06:47.821Z,21.39
2018-04-09T04:07:47.846Z,21.35
2018-04-09T04:08:47.889Z,21.32
2018-04-09T04:09:47.932Z,21.32
2018-04-09T04:10:47.997Z,21.36
2018-04-09T04:11:48.032Z,21.38
2018-04-09T04:12:48.103Z,21.27
2018-04-09T04:13:48.237Z,21.36
2018-04-09T04:14:48.185Z,21.35
2018-04-09T04:15:48.448Z,21.36
2018-04-09T04:16:48.259Z,21.29
2018-04-09T04:17:48.315Z,21.35
2018-04-09T04:18:48.358Z,21.30
2018-04-09T04:19:48.515Z,21.34
2018-04-09T04:20:48.468Z,21.35
2018-04-09T04:21:48.508Z,21.36
2018-04-09T04:22:48.554Z,21.34
2018-04-09T04:23:48.594Z,21.32
2018-04-09T04:24:48.638Z,21.26
2018-04-09T04:25:48.697Z,21.29
2018-04-09T04:26:48.718Z,21.17
2018-04-09T04:27:48.791Z,21.23
2018-04-09T04:28:48.856Z,21.23
2018-04-09T04:30:48.929Z,21.11
2018-04-09T04:31:48.979Z,21.14
2018-04-09T04:32:49.025Z,21.14
2018-04-09T04:33:49.088Z,21.13
2018-04-09T04:34:49.181Z,21.17
2018-04-09T04:35:49.241Z,21.13
2018-04-09T04:36:49.200Z,21.17
2018-04-09T04:37:49.264Z,21.17
2018-04-09T04:39:49.368Z,21.14
2018-04-09T04:40:49.394Z,21.11
2018-04-09T04:41:49.529Z,21.20
2018-04-09T04:42:49.488Z,21.14
2018-04-09T04:43:49.546Z,21.24
2018-04-09T04:44:49.561Z,21.26
2018-04-09T04:45:49.632Z,21.21
2018-04-09T04:46:49.663Z,21.17
2018-04-09T04:47:49.800Z,21.23
2018-04-09T04:48:49.772Z,21.17
2018-04-09T04:49:49.797Z,21.17
2018-04-09T04:50:49.844Z,21.17
2018-04-09T04:51:49.911Z,21.16
2018-04-09T04:52:49.970Z,21.09
2018-04-09T04:54:50.074Z,21.09
2018-04-09T04:55:50.076Z,21.14
2018-04-09T04:56:50.128Z,21.11
2018-04-09T04:57:50.188Z,21.20
2018-04-09T04:58:50.215Z,21.06
2018-04-09T04:59:50.380Z,21.08
2018-04-09T05:00:50.328Z,21.06
2018-04-09T05:01:50.362Z,21.16
2018-04-09T05:02:50.437Z,21.06
2018-04-09T05:03:50.465Z,21.06
2018-04-09T05:04:50.501Z,21.06
2018-04-09T05:05:50.675Z,21.01
2018-04-09T05:06:50.612Z,21.08
2018-04-09T05:07:50.624Z,21.05
2018-04-09T05:08:50.679Z,21.05
2018-04-09T05:09:50.734Z,21.09
2018-04-09T05:10:50.849Z,21.11
2018-04-09T05:11:50.834Z,21.09
2018-04-09T05:12:50.876Z,21.05
2018-04-09T05:13:50.939Z,21.04
2018-04-09T05:15:51.124Z,21.11
2018-04-09T05:16:51.070Z,21.11
2018-04-09T05:17:51.123Z,21.04
2018-04-09T05:18:51.152Z,21.04
2018-04-09T05:19:51.193Z,20.95
2018-04-09T05:20:51.255Z,20.95
2018-04-09T05:21:51.388Z,20.91
2018-04-09T05:22:51.341Z,20.90
2018-04-09T05:23:51.393Z,20.96
2018-04-09T05:24:51.422Z,20.90
2018-04-09T05:25:51.494Z,20.93
2018-04-09T05:26:51.570Z,20.95
2018-04-09T05:27:51.675Z,20.90
2018-04-09T05:28:51.614Z,20.89
2018-04-09T05:29:51.664Z,20.77
2018-04-09T05:30:51.697Z,20.81
2018-04-09T05:31:51.736Z,20.83
2018-04-09T05:32:51.912Z,20.86
2018-04-09T05:33:51.860Z,20.79
2018-04-09T05:34:51.912Z,20.74
2018-04-09T05:35:51.933Z,20.80
2018-04-09T05:36:51.993Z,20.74
2018-04-09T05:37:52.030Z,20.71
2018-04-09T05:38:52.088Z,20.68
2018-04-09T05:39:52.141Z,20.68
2018-04-09T05:40:52.160Z,20.74
2018-04-09T05:41:52.212Z,20.71
2018-04-09T05:42:52.245Z,20.68
2018-04-09T05:43:52.407Z,20.71
2018-04-09T05:45:52.428Z,20.54
2018-04-09T05:46:52.453Z,20.54
2018-04-09T05:47:52.489Z,20.56
2018-04-09T05:48:52.557Z,20.53
2018-04-09T05:49:52.597Z,20.49
2018-04-09T05:50:52.819Z,20.59
2018-04-09T05:51:52.703Z,20.54
2018-04-09T05:52:52.761Z,20.51
2018-04-09T05:53:52.772Z,20.56
2018-04-09T05:54:52.814Z,20.42
2018-04-09T05:55:52.884Z,20.56
2018-04-09T05:56:53.019Z,20.50
2018-04-09T05:57:52.962Z,20.49
2018-04-09T05:58:52.999Z,20.42
2018-04-09T05:59:53.034Z,20.38
2018-04-09T06:00:53.122Z,20.34
2018-04-09T06:01:53.138Z,20.38
2018-04-09T06:02:53.309Z,20.42
2018-04-09T06:03:53.322Z,20.42
2018-04-09T06:04:53.294Z,20.38
2018-04-09T06:05:53.353Z,20.38
2018-04-09T06:06:53.369Z,20.31
2018-04-09T06:07:53.518Z,20.33
2018-04-09T06:08:53.464Z,20.34
2018-04-09T06:09:53.499Z,20.33
2018-04-09T06:10:53.565Z,20.31
2018-04-09T06:11:53.616Z,20.28
2018-04-09T06:12:53.661Z,20.38
2018-04-09T06:13:53.736Z,20.34
2018-04-09T06:14:53.769Z,20.33
2018-04-09T06:15:53.812Z,20.35
2018-04-09T06:16:53.829Z,20.38
2018-04-09T06:17:53.893Z,20.39
2018-04-09T06:18:54.026Z,20.33
2018-04-09T06:19:53.994Z,20.18
2018-04-09T06:20:54.032Z,20.25
2018-04-09T06:21:54.078Z,20.25
2018-04-09T06:22:54.111Z,20.28
2018-04-09T06:23:54.166Z,20.27
2018-04-09T06:24:54.189Z,20.24
2018-04-09T06:25:54.256Z,20.25
2018-04-09T06:26:54.318Z,20.28
2018-04-09T06:27:54.412Z,20.31
2018-04-09T06:28:54.485Z,20.23
2018-04-09T06:29:54.466Z,20.21
2018-04-09T06:30:54.474Z,20.30
2018-04-09T06:31:54.589Z,20.24
2018-04-09T06:32:54.584Z,20.25
2018-04-09T06:33:54.723Z,20.28
2018-04-09T06:34:54.660Z,20.24
2018-04-09T06:35:54.712Z,20.21
2018-04-09T06:36:54.768Z,20.20
2018-04-09T06:37:54.860Z,20.25
2018-04-09T06:38:54.857Z,20.24
2018-04-09T06:39:54.890Z,20.12
2018-04-09T06:40:54.958Z,20.24
2018-04-09T06:41:54.980Z,20.16
2018-04-09T06:42:55.080Z,20.12
2018-04-09T06:43:55.171Z,20.15
2018-04-09T06:44:55.117Z,20.02
2018-04-09T06:45:55.167Z,20.03
2018-04-09T06:46:55.218Z,20.06
2018-04-09T06:47:55.254Z,20.03
2018-04-09T06:48:55.392Z,20.06
2018-04-09T06:49:55.401Z,20.10
2018-04-09T06:50:55.397Z,19.97
2018-04-09T06:51:55.431Z,20.00
2018-04-09T06:52:55.487Z,19.93
2018-04-09T06:53:55.539Z,19.94
2018-04-09T06:54:55.593Z,19.93
2018-04-09T06:55:55.636Z,20.02
2018-04-09T06:56:55.702Z,19.91
2018-04-09T06:57:55.725Z,19.90
2018-04-09T06:58:55.785Z,19.98
2018-04-09T06:59:55.959Z,19.95
2018-04-09T07:00:55.858Z,19.98
2018-04-09T07:01:55.906Z,20.02
2018-04-09T07:02:55.955Z,19.94
2018-04-09T07:03:56.004Z,19.98
2018-04-09T07:04:56.099Z,19.90
2018-04-09T07:05:56.098Z,19.91
2018-04-09T07:06:56.140Z,19.90
2018-04-09T07:07:56.387Z,19.98
2018-04-09T07:08:56.325Z,19.88
2018-04-09T07:09:56.364Z,19.91
2018-04-09T07:10:56.317Z,19.97
2018-04-09T07:11:56.361Z,19.90
2018-04-09T07:12:56.415Z,19.86
2018-04-09T07:13:56.712Z,19.94
2018-04-09T07:14:56.494Z,19.84
2018-04-09T07:15:56.646Z,19.88
2018-04-09T07:16:56.585Z,19.90
2018-04-09T07:17:56.645Z,19.88
2018-04-09T07:18:56.684Z,19.88
2018-04-09T07:19:56.711Z,19.88
2018-04-09T07:20:56.774Z,19.97
2018-04-09T07:21:56.951Z,19.84
2018-04-09T07:22:56.859Z,19.88
2018-04-09T07:23:56.918Z,19.87
2018-04-09T07:24:56.973Z,19.88
2018-04-09T07:25:57.008Z,19.87
2018-04-09T07:26:57.104Z,19.84
2018-04-09T07:27:57.190Z,19.94
2018-04-09T07:28:57.200Z,19.98
2018-04-09T07:29:57.382Z,19.90
2018-04-09T07:30:57.243Z,19.86
2018-04-09T07:31:57.285Z,19.87
2018-04-09T07:32:57.331Z,19.91
2018-04-09T07:33:57.368Z,19.86
2018-04-09T07:34:57.420Z,19.98
2018-04-09T07:35:57.456Z,19.93
2018-04-09T07:36:57.527Z,19.86
2018-04-09T07:37:57.552Z,19.86
2018-04-09T07:39:57.651Z,19.90
2018-04-09T07:40:57.711Z,19.80
2018-04-09T07:41:57.732Z,19.91
2018-04-09T07:42:57.787Z,19.97
2018-04-09T07:43:57.968Z,19.86
2018-04-09T07:44:57.871Z,19.90
2018-04-09T07:45:57.928Z,19.86
2018-04-09T07:46:58.186Z,19.87
2018-04-09T07:47:58.005Z,19.87
2018-04-09T07:48:58.120Z,19.86
2018-04-09T07:49:58.209Z,19.84
2018-04-09T07:50:58.134Z,19.78
2018-04-09T07:51:58.229Z,19.80
2018-04-09T07:52:58.237Z,19.70
2018-04-09T07:53:58.338Z,19.75
2018-04-09T07:54:58.343Z,19.69
2018-04-09T07:55:58.460Z,19.69
2018-04-09T07:56:58.432Z,19.73
2018-04-09T07:57:58.468Z,19.65
2018-04-09T07:58:58.496Z,19.73
2018-04-09T07:59:58.557Z,19.68
2018-04-09T08:00:58.621Z,19.70
2018-04-09T08:01:58.661Z,19.72
2018-04-09T08:02:58.708Z,19.72
2018-04-09T08:03:58.749Z,19.68
2018-04-09T08:04:58.807Z,19.69
2018-04-09T08:05:58.948Z,19.66
2018-04-09T08:06:58.975Z,19.68
2018-04-09T08:07:58.984Z,19.63
2018-04-09T08:08:58.969Z,19.60
2018-04-09T08:09:59.022Z,19.66
2018-04-09T08:10:59.076Z,19.69
2018-04-09T08:11:59.117Z,19.68
2018-04-09T08:12:59.157Z,19.66
2018-04-09T08:13:59.194Z,19.63
2018-04-09T08:14:59.250Z,19.65
2018-04-09T08:15:59.317Z,19.68
2018-04-09T08:16:59.450Z,19.72
2018-04-09T08:17:59.477Z,19.61
2018-04-09T08:18:59.415Z,19.68
2018-04-09T08:19:59.492Z,19.69
2018-04-09T08:20:59.513Z,19.68
2018-04-09T08:21:59.568Z,19.69
2018-04-09T08:22:59.632Z,19.73
2018-04-09T08:23:59.656Z,19.72
2018-04-09T08:24:59.737Z,19.68
2018-04-09T08:25:59.762Z,19.68
2018-04-09T08:26:59.800Z,19.63
2018-04-09T08:27:59.851Z,19.73
2018-04-09T08:28:59.973Z,19.65
2018-04-09T08:30:00.026Z,19.68
2018-04-09T08:31:00.031Z,19.72
2018-04-09T08:32:00.016Z,19.65
2018-04-09T08:33:00.086Z,19.66
2018-04-09T08:34:00.164Z,19.69
2018-04-09T08:35:00.152Z,19.66
2018-04-09T08:36:00.209Z,19.66
2018-04-09T08:37:00.236Z,19.79
2018-04-09T08:38:00.304Z,19.72
2018-04-09T08:39:00.327Z,19.68
2018-04-09T08:40:00.381Z,19.68
2018-04-09T08:41:00.542Z,19.66
2018-04-09T08:42:00.584Z,19.69
2018-04-09T08:43:00.518Z,19.69
2018-04-09T08:44:00.586Z,19.66
2018-04-09T08:45:00.608Z,19.66
2018-04-09T08:46:00.728Z,19.69
2018-04-09T08:47:00.697Z,19.70
2018-04-09T08:48:00.743Z,19.65
2018-04-09T08:49:00.803Z,19.69
2018-04-09T08:50:00.846Z,19.73
2018-04-09T08:51:00.913Z,19.66
2018-04-09T08:52:00.925Z,19.69
2018-04-09T08:53:01.091Z,19.69
2018-04-09T08:54:01.087Z,19.66
2018-04-09T08:55:01.071Z,19.69
2018-04-09T08:56:01.098Z,19.66
2018-04-09T08:57:01.168Z,19.65
2018-04-09T08:58:01.289Z,19.66
2018-04-09T08:59:01.240Z,19.66
2018-04-09T09:00:01.298Z,19.66
2018-04-09T09:01:01.543Z,19.66
2018-04-09T09:02:01.410Z,19.68
2018-04-09T09:03:01.423Z,19.66
2018-04-09T09:04:01.484Z,19.63
2018-04-09T09:05:01.643Z,19.63
2018-04-09T09:06:01.574Z,19.68
2018-04-09T09:07:01.606Z,19.63
2018-04-09T09:08:01.653Z,19.65
2018-04-09T09:09:01.705Z,19.68
2018-04-09T09:10:01.787Z,19.70
2018-04-09T09:11:01.789Z,19.70
2018-04-09T09:12:01.856Z,19.63
2018-04-09T09:13:01.925Z,19.70
2018-04-09T09:14:01.932Z,19.66
2018-04-09T09:15:02.093Z,19.69
2018-04-09T09:16:02.079Z,19.68
2018-04-09T09:17:02.057Z,19.66
2018-04-09T09:18:02.099Z,19.65
2018-04-09T09:19:02.156Z,19.68
2018-04-09T09:20:02.301Z,19.69
2018-04-09T09:21:02.256Z,19.69
2018-04-09T09:22:02.331Z,19.75
2018-04-09T09:23:02.396Z,19.79
2018-04-09T09:24:02.371Z,19.78
2018-04-09T09:25:02.417Z,19.69
2018-04-09T09:26:02.578Z,19.78
2018-04-09T09:27:02.525Z,19.72
2018-04-09T09:28:02.569Z,19.76
2018-04-09T09:29:02.617Z,19.83
2018-04-09T09:30:02.673Z,19.83
2018-04-09T09:31:02.717Z,19.84
2018-04-09T09:32:02.838Z,19.86
2018-04-09T09:33:02.792Z,19.79
2018-04-09T09:34:02.851Z,19.84
2018-04-09T09:35:02.863Z,19.88
2018-04-09T09:36:02.941Z,19.90
2018-04-09T09:37:02.980Z,19.88
2018-04-09T09:38:03.028Z,19.87
2018-04-09T09:39:03.072Z,19.95
2018-04-09T09:41:03.138Z,20.08
2018-04-09T09:42:03.301Z,20.02
2018-04-09T09:43:03.348Z,20.10
2018-04-09T09:44:03.281Z,20.15
2018-04-09T09:45:03.448Z,20.10
2018-04-09T09:46:03.397Z,20.24
2018-04-09T09:47:03.432Z,20.25
2018-04-09T09:48:03.469Z,20.25
2018-04-09T09:49:03.515Z,20.23
2018-04-09T09:50:03.593Z,20.24
2018-04-09T09:51:03.601Z,20.25
2018-04-09T09:52:03.641Z,20.39
2018-04-09T09:53:03.701Z,20.46
2018-04-09T09:54:03.831Z,20.41
2018-04-09T09:55:03.803Z,20.49
2018-04-09T09:56:03.837Z,20.49
2018-04-09T09:58:03.931Z,20.53
2018-04-09T09:59:04.262Z,20.56
2018-04-09T10:00:04.034Z,20.58
2018-04-09T10:01:04.302Z,20.53
2018-04-09T10:02:04.108Z,20.62
2018-04-09T10:03:04.172Z,20.66
2018-04-09T10:04:04.243Z,20.69
2018-04-09T10:05:04.354Z,20.80
2018-04-09T10:06:04.335Z,20.81
2018-04-09T10:07:04.346Z,20.80
2018-04-09T10:08:04.405Z,20.83
2018-04-09T10:09:04.472Z,20.83
2018-04-09T10:10:04.486Z,20.81
2018-04-09T10:11:04.527Z,20.83
2018-04-09T10:12:04.591Z,20.83
2018-04-09T10:13:04.641Z,20.86
2018-04-09T10:14:04.670Z,20.83
2018-04-09T10:15:04.835Z,20.77
2018-04-09T10:16:04.759Z,20.81
2018-04-09T10:17:04.811Z,20.79
2018-04-09T10:18:04.875Z,20.86
2018-04-09T10:19:04.901Z,20.83
2018-04-09T10:20:05.055Z,20.90
2018-04-09T10:21:05.007Z,21.11
2018-04-09T10:22:05.056Z,21.06
2018-04-09T10:24:05.167Z,21.20
2018-04-09T10:25:05.200Z,21.16
2018-04-09T10:26:05.241Z,21.17
2018-04-09T10:27:05.291Z,21.29
2018-04-09T10:28:05.340Z,21.27
2018-04-09T10:29:05.374Z,21.29
2018-04-09T10:30:05.524Z,21.24
2018-04-09T10:31:05.476Z,21.30
2018-04-09T10:32:05.541Z,21.23
2018-04-09T10:33:05.558Z,21.09
2018-04-09T10:34:05.643Z,21.09
2018-04-09T10:35:05.758Z,21.14
2018-04-09T10:36:05.713Z,21.17
2018-04-09T10:37:05.749Z,21.19
2018-04-09T10:38:05.813Z,21.20
2018-04-09T10:39:05.865Z,21.19
2018-04-09T10:40:05.906Z,21.17
2018-04-09T10:41:06.067Z,21.32
2018-04-09T10:42:05.977Z,21.30
2018-04-09T10:43:06.036Z,21.36
2018-04-09T10:44:06.083Z,21.38
2018-04-09T10:45:06.145Z,21.34
2018-04-09T10:46:06.171Z,21.41
2018-04-09T10:47:06.212Z,21.42
2018-04-09T10:48:06.378Z,21.50
2018-04-09T10:49:06.338Z,21.59
2018-04-09T10:50:06.382Z,21.61
2018-04-09T10:51:06.443Z,21.59
2018-04-09T10:52:06.471Z,21.71
2018-04-09T10:53:06.515Z,21.69
2018-04-09T10:54:06.642Z,21.67
2018-04-09T10:55:06.599Z,21.59
2018-04-09T10:56:06.665Z,21.57
2018-04-09T10:57:06.693Z,21.60
2018-04-09T10:58:06.747Z,21.59
2018-04-09T10:59:06.905Z,21.60
2018-04-09T11:00:07.045Z,21.54
2018-04-09T11:01:06.889Z,21.42
2018-04-09T11:02:06.961Z,21.44
2018-04-09T11:03:06.998Z,21.41
2018-04-09T11:04:07.077Z,21.60
2018-04-09T11:05:07.169Z,21.50
2018-04-09T11:06:07.140Z,21.57
2018-04-09T11:07:07.189Z,21.57
2018-04-09T11:08:07.258Z,21.66
2018-04-09T11:10:07.321Z,21.74
2018-04-09T11:11:07.468Z,21.75
2018-04-09T11:12:07.412Z,21.72
2018-04-09T11:13:07.470Z,21.75
2018-04-09T11:14:07.540Z,21.81
2018-04-09T11:15:07.553Z,21.83
2018-04-09T11:16:07.602Z,21.92
2018-04-09T11:17:07.764Z,21.95
2018-04-09T11:18:07.699Z,21.98
2018-04-09T11:19:07.754Z,21.95
2018-04-09T11:20:07.791Z,21.95
2018-04-09T11:21:07.846Z,21.95
2018-04-09T11:23:08.033Z,21.94
2018-04-09T11:24:08.018Z,22.04
2018-04-09T11:25:08.088Z,21.94
2018-04-09T11:26:08.085Z,21.91
2018-04-09T11:27:08.131Z,21.99
2018-04-09T11:28:08.186Z,22.14
2018-04-09T11:29:08.345Z,22.12
2018-04-09T11:30:08.266Z,22.12
2018-04-09T11:32:08.380Z,22.23
2018-04-09T11:33:08.410Z,22.13
2018-04-09T11:34:08.468Z,22.14
2018-04-09T11:35:08.599Z,22.14
2018-04-09T11:36:08.570Z,22.13
2018-04-09T11:37:08.652Z,22.14
2018-04-09T11:38:08.655Z,22.22
2018-04-09T11:39:08.707Z,22.37
2018-04-09T11:40:08.763Z,22.39
2018-04-09T11:41:08.790Z,22.35
2018-04-09T11:42:08.853Z,22.41
2018-04-09T11:43:08.914Z,22.43
2018-04-09T11:44:08.961Z,22.53
2018-04-09T11:45:09.309Z,22.60
2018-04-09T11:46:09.041Z,22.68
2018-04-09T11:47:09.137Z,22.72
2018-04-09T11:48:09.127Z,22.72
2018-04-09T11:49:09.219Z,22.78
2018-04-09T11:50:09.230Z,22.75
2018-04-09T11:51:09.293Z,22.80
2018-04-09T11:52:09.461Z,22.86
2018-04-09T11:53:09.399Z,22.80
2018-04-09T11:54:09.444Z,22.86
2018-04-09T11:55:09.476Z,22.71
2018-04-09T11:56:09.557Z,22.65
2018-04-09T11:57:09.579Z,22.60
2018-04-09T11:58:09.757Z,22.80
2018-04-09T11:59:09.675Z,22.96
2018-04-09T12:00:09.732Z,22.99
2018-04-09T12:01:09.805Z,23.12
2018-04-09T12:02:09.827Z,23.39
2018-04-09T12:03:09.963Z,23.39
2018-04-09T12:04:10.043Z,23.65
2018-04-09T12:05:09.959Z,23.92
2018-04-09T12:06:10.051Z,24.32
2018-04-09T12:07:10.074Z,24.79
2018-04-09T12:08:10.115Z,25.00
2018-04-09T12:09:10.173Z,25.32
2018-04-09T12:10:10.209Z,25.56
2018-04-09T12:11:10.265Z,25.74
2018-04-09T12:12:10.363Z,25.79
2018-04-09T12:13:10.369Z,25.65
2018-04-09T12:14:10.538Z,25.61
2018-04-09T12:15:10.485Z,26.12
2018-04-09T12:16:10.523Z,26.17
2018-04-09T12:17:10.599Z,26.27
2018-04-09T12:18:10.626Z,26.65
2018-04-09T12:19:10.778Z,27.19
2018-04-09T12:20:10.718Z,27.54
2018-04-09T12:21:10.798Z,27.17
2018-04-09T12:22:10.843Z,27.26
2018-04-09T12:23:10.913Z,27.41
2018-04-09T12:24:11.074Z,27.66
2018-04-09T12:25:11.004Z,27.58
2018-04-09T12:26:11.059Z,27.24
2018-04-09T12:27:11.126Z,27.05
2018-04-09T12:28:11.357Z,26.95
2018-04-09T12:29:11.202Z,27.38
2018-04-09T12:30:11.261Z,27.54
2018-04-09T12:31:11.301Z,27.48
2018-04-09T12:32:11.382Z,27.21
2018-04-09T12:33:11.451Z,27.13
2018-04-09T12:34:11.630Z,27.05
2018-04-09T12:35:11.666Z,27.20
2018-04-09T12:36:11.574Z,26.98
2018-04-09T12:37:11.640Z,26.81
2018-04-09T12:38:11.702Z,26.69
2018-04-09T12:39:11.763Z,26.67
2018-04-09T12:40:11.789Z,27.11
2018-04-09T12:41:11.996Z,27.24
2018-04-09T12:42:11.906Z,26.73
2018-04-09T12:43:11.966Z,26.89
2018-04-09T12:45:12.105Z,26.67
2018-04-09T12:46:13.637Z,26.74
2018-04-09T12:47:12.262Z,26.76
2018-04-09T12:48:12.256Z,26.73
2018-04-09T12:49:12.307Z,26.92
2018-04-09T12:51:12.399Z,27.47
2018-04-09T12:52:12.543Z,27.95
2018-04-09T12:53:12.508Z,28.47
2018-04-09T12:54:12.570Z,28.88
2018-04-09T12:55:12.607Z,28.80
2018-04-09T12:56:12.661Z,28.87
2018-04-09T12:57:12.716Z,29.01
2018-04-09T12:59:12.915Z,29.25
2018-04-09T13:00:12.882Z,29.19
2018-04-09T13:01:12.963Z,29.19
2018-04-09T13:02:13.008Z,28.87
2018-04-09T13:03:13.051Z,28.80
2018-04-09T13:04:13.204Z,28.85
2018-04-09T13:05:13.135Z,29.35
2018-04-09T13:06:13.411Z,29.90
2018-04-09T13:07:13.279Z,30.37
2018-04-09T13:08:13.527Z,30.94
2018-04-09T13:09:13.479Z,31.05
2018-04-09T13:10:13.444Z,30.98
2018-04-09T13:11:13.483Z,31.18
2018-04-09T13:12:13.542Z,31.61
2018-04-09T13:13:13.604Z,31.62
2018-04-09T13:14:13.675Z,31.99
2018-04-09T13:15:15.238Z,31.99
2018-04-09T13:16:13.770Z,31.77